METAR Data
IDs: Format: Raw Decoded Include TAF

Data at: 1506 UTC 19 Jul 2019

EBBR 191450Z 21007KT 170V260 CAVOK 24/11 Q1014 NOSIG